Bayle, Illinois
Current Conditions -  °F | °C
As of 4:55 PM on Thursday 27 Nov 2014 (Local Time) from K1H2 Reporting Station
Overcast Overcast  
Wind Chill: -9°   Ceiling: 3000
Heat Index: -3°   Visibility: 10mi
Dew Point: -9°   Wind: 10mph
Humidity: 67%   Direction: 300°WNW
Pressure: 30.46"   Gusts: NA
Location:  39.1031°N, 89.1042°W
Report Text: K1H2 272255Z AUTO 30009KT 10SM OVC030 M03/M08 A3046 RMK AO2 T10321085
Loading
Personal Weather Stations






























Interactive Weather Map New forecast layout! Learn more

10-Day Weather Forecast

Advertisements
Track Severe Weather on mobile